sensor_id;sensor_type;location;lat;lon;timestamp;temperature;humidity
46706;DHT22;33519;50.712;7.124;2023-04-03T00:00:26;4.40;99.90
46706;DHT22;33519;50.712;7.124;2023-04-03T00:02:53;4.50;99.90
46706;DHT22;33519;50.712;7.124;2023-04-03T00:05:19;4.50;99.90
46706;DHT22;33519;50.712;7.124;2023-04-03T00:07:46;4.40;99.90
46706;DHT22;33519;50.712;7.124;2023-04-03T00:10:13;4.40;99.90
46706;DHT22;33519;50.712;7.124;2023-04-03T00:12:41;4.40;99.90
46706;DHT22;33519;50.712;7.124;2023-04-03T00:15:07;4.40;99.90
46706;DHT22;33519;50.712;7.124;2023-04-03T00:17:34;4.30;99.90
46706;DHT22;33519;50.712;7.124;2023-04-03T00:20:02;4.30;99.90
46706;DHT22;33519;50.712;7.124;2023-04-03T00:22:29;4.30;99.90
46706;DHT22;33519;50.712;7.124;2023-04-03T00:24:58;4.30;99.90
46706;DHT22;33519;50.712;7.124;2023-04-03T00:27:25;4.40;99.90
46706;DHT22;33519;50.712;7.124;2023-04-03T00:29:52;4.40;99.90
46706;DHT22;33519;50.712;7.124;2023-04-03T00:32:19;4.40;99.90
46706;DHT22;33519;50.712;7.124;2023-04-03T00:34:45;4.40;99.90
46706;DHT22;33519;50.712;7.124;2023-04-03T00:37:12;4.40;99.90
46706;DHT22;33519;50.712;7.124;2023-04-03T00:39:39;4.40;99.90
46706;DHT22;33519;50.712;7.124;2023-04-03T00:42:06;4.40;99.90
46706;DHT22;33519;50.712;7.124;2023-04-03T00:46:59;4.30;99.90
46706;DHT22;33519;50.712;7.124;2023-04-03T00:49:26;4.30;99.90
46706;DHT22;33519;50.712;7.124;2023-04-03T00:51:53;4.30;99.90
46706;DHT22;33519;50.712;7.124;2023-04-03T00:54:20;4.30;99.90
46706;DHT22;33519;50.712;7.124;2023-04-03T00:56:46;4.30;99.90
46706;DHT22;33519;50.712;7.124;2023-04-03T00:59:19;4.20;99.90
46706;DHT22;33519;50.712;7.124;2023-04-03T01:01:49;4.20;99.90
46706;DHT22;33519;50.712;7.124;2023-04-03T01:07:17;4.20;99.90
46706;DHT22;33519;50.712;7.124;2023-04-03T01:09:45;4.20;99.90
46706;DHT22;33519;50.712;7.124;2023-04-03T01:14:39;4.10;99.90
46706;DHT22;33519;50.712;7.124;2023-04-03T01:19:54;4.10;99.90
46706;DHT22;33519;50.712;7.124;2023-04-03T01:22:26;4.10;99.90
46706;DHT22;33519;50.712;7.124;2023-04-03T01:24:56;4.10;99.90
46706;DHT22;33519;50.712;7.124;2023-04-03T01:27:22;4.10;99.90
46706;DHT22;33519;50.712;7.124;2023-04-03T01:29:49;4.10;99.90
46706;DHT22;33519;50.712;7.124;2023-04-03T01:32:15;4.10;99.90
46706;DHT22;33519;50.712;7.124;2023-04-03T01:34:42;4.10;99.90
46706;DHT22;33519;50.712;7.124;2023-04-03T01:37:09;4.10;99.90
46706;DHT22;33519;50.712;7.124;2023-04-03T01:39:35;4.20;99.90
46706;DHT22;33519;50.712;7.124;2023-04-03T01:42:02;4.20;99.90
46706;DHT22;33519;50.712;7.124;2023-04-03T01:44:30;4.20;99.90
46706;DHT22;33519;50.712;7.124;2023-04-03T01:46:56;4.10;99.90
46706;DHT22;33519;50.712;7.124;2023-04-03T01:49:23;4.10;99.90
46706;DHT22;33519;50.712;7.124;2023-04-03T01:51:52;4.10;99.90
46706;DHT22;33519;50.712;7.124;2023-04-03T01:54:19;4.10;99.90
46706;DHT22;33519;50.712;7.124;2023-04-03T01:56:46;4.10;99.90
46706;DHT22;33519;50.712;7.124;2023-04-03T01:59:13;4.00;99.90
46706;DHT22;33519;50.712;7.124;2023-04-03T02:01:40;3.90;99.90
46706;DHT22;33519;50.712;7.124;2023-04-03T02:04:06;3.90;99.90
46706;DHT22;33519;50.712;7.124;2023-04-03T02:06:33;3.90;99.90
46706;DHT22;33519;50.712;7.124;2023-04-03T02:09:00;3.90;99.90
46706;DHT22;33519;50.712;7.124;2023-04-03T02:11:26;3.90;99.90
46706;DHT22;33519;50.712;7.124;2023-04-03T02:13:56;3.80;99.90
46706;DHT22;33519;50.712;7.124;2023-04-03T02:16:26;3.80;99.90
46706;DHT22;33519;50.712;7.124;2023-04-03T02:18:53;3.70;99.90
46706;DHT22;33519;50.712;7.124;2023-04-03T02:21:22;3.80;99.90
46706;DHT22;33519;50.712;7.124;2023-04-03T02:23:49;3.80;99.90
46706;DHT22;33519;50.712;7.124;2023-04-03T02:26:15;3.80;99.90
46706;DHT22;33519;50.712;7.124;2023-04-03T02:28:42;3.80;99.90
46706;DHT22;33519;50.712;7.124;2023-04-03T02:31:09;3.80;99.90
46706;DHT22;33519;50.712;7.124;2023-04-03T02:33:37;3.80;99.90
46706;DHT22;33519;50.712;7.124;2023-04-03T02:36:04;3.70;99.90
46706;DHT22;33519;50.712;7.124;2023-04-03T02:38:32;3.70;99.90
46706;DHT22;33519;50.712;7.124;2023-04-03T02:41:02;3.60;99.90
46706;DHT22;33519;50.712;7.124;2023-04-03T02:43:29;3.60;99.90
46706;DHT22;33519;50.712;7.124;2023-04-03T02:45:55;3.60;99.90
46706;DHT22;33519;50.712;7.124;2023-04-03T02:48:22;3.50;99.90
46706;DHT22;33519;50.712;7.124;2023-04-03T02:50:49;3.50;99.90
46706;DHT22;33519;50.712;7.124;2023-04-03T02:53:16;3.40;99.90
46706;DHT22;33519;50.712;7.124;2023-04-03T02:55:43;3.50;99.90
46706;DHT22;33519;50.712;7.124;2023-04-03T02:58:10;3.60;99.90
46706;DHT22;33519;50.712;7.124;2023-04-03T03:00:37;3.60;99.90
46706;DHT22;33519;50.712;7.124;2023-04-03T03:03:04;3.60;99.90
46706;DHT22;33519;50.712;7.124;2023-04-03T03:05:31;3.60;99.90
46706;DHT22;33519;50.712;7.124;2023-04-03T03:07:58;3.50;99.90
46706;DHT22;33519;50.712;7.124;2023-04-03T03:10:24;3.40;99.90
46706;DHT22;33519;50.712;7.124;2023-04-03T03:12:51;3.40;99.90
46706;DHT22;33519;50.712;7.124;2023-04-03T03:15:18;3.40;99.90
46706;DHT22;33519;50.712;7.124;2023-04-03T03:17:45;3.40;99.90
46706;DHT22;33519;50.712;7.124;2023-04-03T03:20:12;3.40;99.90
46706;DHT22;33519;50.712;7.124;2023-04-03T03:22:40;3.30;99.90
46706;DHT22;33519;50.712;7.124;2023-04-03T03:25:07;3.30;99.90
46706;DHT22;33519;50.712;7.124;2023-04-03T03:27:34;3.40;99.90
46706;DHT22;33519;50.712;7.124;2023-04-03T03:30:00;3.30;99.90
46706;DHT22;33519;50.712;7.124;2023-04-03T03:32:27;3.20;99.90
46706;DHT22;33519;50.712;7.124;2023-04-03T03:34:54;3.30;99.90
46706;DHT22;33519;50.712;7.124;2023-04-03T03:37:20;3.30;99.90
46706;DHT22;33519;50.712;7.124;2023-04-03T03:39:47;3.30;99.90
46706;DHT22;33519;50.712;7.124;2023-04-03T03:42:13;3.20;99.90
46706;DHT22;33519;50.712;7.124;2023-04-03T03:44:40;3.10;99.90
46706;DHT22;33519;50.712;7.124;2023-04-03T03:47:07;3.00;99.90
46706;DHT22;33519;50.712;7.124;2023-04-03T03:49:37;3.00;99.90
46706;DHT22;33519;50.712;7.124;2023-04-03T03:52:03;3.00;99.90
46706;DHT22;33519;50.712;7.124;2023-04-03T03:54:30;3.00;99.90
46706;DHT22;33519;50.712;7.124;2023-04-03T03:56:56;2.90;99.90
46706;DHT22;33519;50.712;7.124;2023-04-03T03:59:23;2.90;99.90
46706;DHT22;33519;50.712;7.124;2023-04-03T04:01:49;2.80;99.90
46706;DHT22;33519;50.712;7.124;2023-04-03T04:04:16;2.80;99.90
46706;DHT22;33519;50.712;7.124;2023-04-03T04:06:43;2.60;99.90
46706;DHT22;33519;50.712;7.124;2023-04-03T04:09:09;2.70;99.90
46706;DHT22;33519;50.712;7.124;2023-04-03T04:11:36;2.60;99.90
46706;DHT22;33519;50.712;7.124;2023-04-03T04:14:03;2.60;99.90
46706;DHT22;33519;50.712;7.124;2023-04-03T04:16:29;2.50;99.90
46706;DHT22;33519;50.712;7.124;2023-04-03T04:18:56;2.50;99.90
46706;DHT22;33519;50.712;7.124;2023-04-03T04:21:23;2.40;99.90
46706;DHT22;33519;50.712;7.124;2023-04-03T04:23:52;2.40;99.90
46706;DHT22;33519;50.712;7.124;2023-04-03T04:26:24;2.30;99.90
46706;DHT22;33519;50.712;7.124;2023-04-03T04:29:03;2.20;99.90
46706;DHT22;33519;50.712;7.124;2023-04-03T04:31:30;2.10;99.90
46706;DHT22;33519;50.712;7.124;2023-04-03T04:33:57;2.20;99.90
46706;DHT22;33519;50.712;7.124;2023-04-03T04:36:24;2.20;99.90
46706;DHT22;33519;50.712;7.124;2023-04-03T04:38:50;2.30;99.90
46706;DHT22;33519;50.712;7.124;2023-04-03T04:41:23;2.30;99.90
46706;DHT22;33519;50.712;7.124;2023-04-03T04:43:51;2.30;99.90
46706;DHT22;33519;50.712;7.124;2023-04-03T04:46:21;2.30;99.90
46706;DHT22;33519;50.712;7.124;2023-04-03T04:48:48;2.20;99.90
46706;DHT22;33519;50.712;7.124;2023-04-03T04:51:15;2.10;99.90
46706;DHT22;33519;50.712;7.124;2023-04-03T04:53:42;2.10;99.90
46706;DHT22;33519;50.712;7.124;2023-04-03T04:56:09;2.10;99.90
46706;DHT22;33519;50.712;7.124;2023-04-03T04:58:36;2.00;99.90
46706;DHT22;33519;50.712;7.124;2023-04-03T05:01:03;2.10;99.90
46706;DHT22;33519;50.712;7.124;2023-04-03T05:03:30;2.10;99.90
46706;DHT22;33519;50.712;7.124;2023-04-03T05:05:57;2.00;99.90
46706;DHT22;33519;50.712;7.124;2023-04-03T05:08:24;2.00;99.90
46706;DHT22;33519;50.712;7.124;2023-04-03T05:10:50;2.00;99.90
46706;DHT22;33519;50.712;7.124;2023-04-03T05:13:20;2.00;99.90
46706;DHT22;33519;50.712;7.124;2023-04-03T05:15:46;2.00;99.90
46706;DHT22;33519;50.712;7.124;2023-04-03T05:18:13;2.10;99.90
46706;DHT22;33519;50.712;7.124;2023-04-03T05:20:40;2.10;99.90
46706;DHT22;33519;50.712;7.124;2023-04-03T05:23:06;2.00;99.90
46706;DHT22;33519;50.712;7.124;2023-04-03T05:25:33;2.00;99.90
46706;DHT22;33519;50.712;7.124;2023-04-03T05:28:00;2.00;99.90
46706;DHT22;33519;50.712;7.124;2023-04-03T05:30:27;1.90;99.90
46706;DHT22;33519;50.712;7.124;2023-04-03T05:32:53;1.90;99.90
46706;DHT22;33519;50.712;7.124;2023-04-03T05:35:20;1.90;99.90
46706;DHT22;33519;50.712;7.124;2023-04-03T05:37:48;1.90;99.90
46706;DHT22;33519;50.712;7.124;2023-04-03T05:40:15;1.90;99.90
46706;DHT22;33519;50.712;7.124;2023-04-03T05:42:44;2.00;99.90
46706;DHT22;33519;50.712;7.124;2023-04-03T05:45:10;2.00;99.90
46706;DHT22;33519;50.712;7.124;2023-04-03T05:47:37;2.00;99.90
46706;DHT22;33519;50.712;7.124;2023-04-03T05:50:04;2.10;99.90
46706;DHT22;33519;50.712;7.124;2023-04-03T05:52:37;2.10;99.90
46706;DHT22;33519;50.712;7.124;2023-04-03T05:55:07;2.20;99.90
46706;DHT22;33519;50.712;7.124;2023-04-03T05:57:34;2.20;99.90
46706;DHT22;33519;50.712;7.124;2023-04-03T06:00:06;2.30;99.90
46706;DHT22;33519;50.712;7.124;2023-04-03T06:02:33;2.20;99.90
46706;DHT22;33519;50.712;7.124;2023-04-03T06:05:00;2.20;99.90
46706;DHT22;33519;50.712;7.124;2023-04-03T06:07:27;2.20;99.90
46706;DHT22;33519;50.712;7.124;2023-04-03T06:09:55;2.30;99.90
46706;DHT22;33519;50.712;7.124;2023-04-03T06:12:22;2.40;99.90
46706;DHT22;33519;50.712;7.124;2023-04-03T06:14:51;2.50;99.90
46706;DHT22;33519;50.712;7.124;2023-04-03T06:19:59;2.50;99.90
46706;DHT22;33519;50.712;7.124;2023-04-03T06:22:26;2.60;99.90
46706;DHT22;33519;50.712;7.124;2023-04-03T06:24:54;2.60;99.90
46706;DHT22;33519;50.712;7.124;2023-04-03T06:27:22;2.60;99.90
46706;DHT22;33519;50.712;7.124;2023-04-03T06:29:48;2.60;99.90
46706;DHT22;33519;50.712;7.124;2023-04-03T06:32:16;2.60;99.90
46706;DHT22;33519;50.712;7.124;2023-04-03T06:34:42;2.70;99.90
46706;DHT22;33519;50.712;7.124;2023-04-03T06:37:16;2.70;99.90
46706;DHT22;33519;50.712;7.124;2023-04-03T06:39:43;2.70;99.90
46706;DHT22;33519;50.712;7.124;2023-04-03T06:42:11;2.80;99.90
46706;DHT22;33519;50.712;7.124;2023-04-03T06:44:38;2.80;99.90
46706;DHT22;33519;50.712;7.124;2023-04-03T06:47:05;2.90;99.90
46706;DHT22;33519;50.712;7.124;2023-04-03T06:49:32;2.90;99.90
46706;DHT22;33519;50.712;7.124;2023-04-03T06:51:58;3.00;99.90
46706;DHT22;33519;50.712;7.124;2023-04-03T06:54:28;3.00;99.90
46706;DHT22;33519;50.712;7.124;2023-04-03T06:56:54;3.10;99.90
46706;DHT22;33519;50.712;7.124;2023-04-03T06:59:21;3.10;99.90
46706;DHT22;33519;50.712;7.124;2023-04-03T07:01:48;3.20;99.90
46706;DHT22;33519;50.712;7.124;2023-04-03T07:04:15;3.30;99.90
46706;DHT22;33519;50.712;7.124;2023-04-03T07:06:42;3.30;99.90
46706;DHT22;33519;50.712;7.124;2023-04-03T07:09:09;3.40;99.90
46706;DHT22;33519;50.712;7.124;2023-04-03T07:11:37;3.40;99.90
46706;DHT22;33519;50.712;7.124;2023-04-03T07:14:03;3.40;99.90
46706;DHT22;33519;50.712;7.124;2023-04-03T07:16:30;3.50;99.90
46706;DHT22;33519;50.712;7.124;2023-04-03T07:18:57;3.50;99.90
46706;DHT22;33519;50.712;7.124;2023-04-03T07:21:24;3.60;99.90
46706;DHT22;33519;50.712;7.124;2023-04-03T07:23:50;3.60;99.90
46706;DHT22;33519;50.712;7.124;2023-04-03T07:26:17;3.70;99.90
46706;DHT22;33519;50.712;7.124;2023-04-03T07:28:44;3.80;99.90
46706;DHT22;33519;50.712;7.124;2023-04-03T07:31:11;3.80;99.90
46706;DHT22;33519;50.712;7.124;2023-04-03T07:33:39;3.90;99.90
46706;DHT22;33519;50.712;7.124;2023-04-03T07:36:06;3.90;99.90
46706;DHT22;33519;50.712;7.124;2023-04-03T07:38:34;4.10;99.90
46706;DHT22;33519;50.712;7.124;2023-04-03T07:41:04;4.20;99.90
46706;DHT22;33519;50.712;7.124;2023-04-03T07:43:31;4.20;99.90
46706;DHT22;33519;50.712;7.124;2023-04-03T07:45:58;4.30;99.90
46706;DHT22;33519;50.712;7.124;2023-04-03T07:48:25;4.40;99.90
46706;DHT22;33519;50.712;7.124;2023-04-03T07:50:51;4.40;99.90
46706;DHT22;33519;50.712;7.124;2023-04-03T07:53:18;4.40;99.90
46706;DHT22;33519;50.712;7.124;2023-04-03T07:55:48;4.50;99.90
46706;DHT22;33519;50.712;7.124;2023-04-03T07:58:16;4.50;99.90
46706;DHT22;33519;50.712;7.124;2023-04-03T08:00:43;4.50;99.90
46706;DHT22;33519;50.712;7.124;2023-04-03T08:03:10;4.50;99.90
46706;DHT22;33519;50.712;7.124;2023-04-03T08:05:39;4.60;99.90
46706;DHT22;33519;50.712;7.124;2023-04-03T08:08:06;4.70;99.90
46706;DHT22;33519;50.712;7.124;2023-04-03T08:10:33;4.80;99.90
46706;DHT22;33519;50.712;7.124;2023-04-03T08:13:01;4.80;99.90
46706;DHT22;33519;50.712;7.124;2023-04-03T08:15:27;4.90;99.90
46706;DHT22;33519;50.712;7.124;2023-04-03T08:17:55;5.00;99.90
46706;DHT22;33519;50.712;7.124;2023-04-03T08:20:22;5.00;99.90
46706;DHT22;33519;50.712;7.124;2023-04-03T08:22:49;5.00;99.90
46706;DHT22;33519;50.712;7.124;2023-04-03T08:25:15;5.00;99.90
46706;DHT22;33519;50.712;7.124;2023-04-03T08:27:44;5.10;99.90
46706;DHT22;33519;50.712;7.124;2023-04-03T08:30:11;5.20;99.90
46706;DHT22;33519;50.712;7.124;2023-04-03T08:32:40;5.40;99.90
46706;DHT22;33519;50.712;7.124;2023-04-03T08:35:11;5.60;99.90
46706;DHT22;33519;50.712;7.124;2023-04-03T08:37:38;5.70;99.90
46706;DHT22;33519;50.712;7.124;2023-04-03T08:40:06;5.70;99.90
46706;DHT22;33519;50.712;7.124;2023-04-03T08:45:10;6.00;99.90
46706;DHT22;33519;50.712;7.124;2023-04-03T08:50:12;6.00;99.90
46706;DHT22;33519;50.712;7.124;2023-04-03T08:52:51;6.00;99.90
46706;DHT22;33519;50.712;7.124;2023-04-03T08:55:29;6.10;99.90
46706;DHT22;33519;50.712;7.124;2023-04-03T08:57:58;5.90;99.90
46706;DHT22;33519;50.712;7.124;2023-04-03T09:00:27;5.80;99.90
46706;DHT22;33519;50.712;7.124;2023-04-03T09:02:55;5.80;99.90
46706;DHT22;33519;50.712;7.124;2023-04-03T09:10:33;6.10;99.90
46706;DHT22;33519;50.712;7.124;2023-04-03T09:13:11;6.40;99.90
46706;DHT22;33519;50.712;7.124;2023-04-03T09:15:39;6.90;99.90
46706;DHT22;33519;50.712;7.124;2023-04-03T09:23:32;9.10;96.80
46706;DHT22;33519;50.712;7.124;2023-04-03T09:26:04;10.20;93.80
46706;DHT22;33519;50.712;7.124;2023-04-03T09:28:34;11.10;90.90
46706;DHT22;33519;50.712;7.124;2023-04-03T09:31:19;11.90;87.10
46706;DHT22;33519;50.712;7.124;2023-04-03T09:33:50;12.60;82.00
46706;DHT22;33519;50.712;7.124;2023-04-03T09:39:05;12.50;79.80
46706;DHT22;33519;50.712;7.124;2023-04-03T09:41:32;12.30;78.60
46706;DHT22;33519;50.712;7.124;2023-04-03T09:43:59;12.40;77.50
46706;DHT22;33519;50.712;7.124;2023-04-03T09:48:58;11.60;78.30
46706;DHT22;33519;50.712;7.124;2023-04-03T09:51:35;10.80;79.40
46706;DHT22;33519;50.712;7.124;2023-04-03T09:54:23;10.50;80.50
46706;DHT22;33519;50.712;7.124;2023-04-03T09:56:49;11.10;80.00
46706;DHT22;33519;50.712;7.124;2023-04-03T09:59:16;12.90;81.20
46706;DHT22;33519;50.712;7.124;2023-04-03T10:01:56;13.30;78.70
46706;DHT22;33519;50.712;7.124;2023-04-03T10:04:23;14.90;74.00
46706;DHT22;33519;50.712;7.124;2023-04-03T10:06:52;14.50;71.20
46706;DHT22;33519;50.712;7.124;2023-04-03T10:11:57;14.30;69.30
46706;DHT22;33519;50.712;7.124;2023-04-03T10:14:25;15.40;67.00
46706;DHT22;33519;50.712;7.124;2023-04-03T10:19:57;14.30;63.70
46706;DHT22;33519;50.712;7.124;2023-04-03T10:25:00;13.90;62.70
46706;DHT22;33519;50.712;7.124;2023-04-03T10:27:33;14.90;62.50
46706;DHT22;33519;50.712;7.124;2023-04-03T10:33:09;13.40;64.00
46706;DHT22;33519;50.712;7.124;2023-04-03T10:43:33;14.00;61.50
46706;DHT22;33519;50.712;7.124;2023-04-03T10:46:13;13.50;61.20
46706;DHT22;33519;50.712;7.124;2023-04-03T10:49:02;14.20;61.40
46706;DHT22;33519;50.712;7.124;2023-04-03T10:51:35;15.10;61.00
46706;DHT22;33519;50.712;7.124;2023-04-03T10:54:16;14.70;60.00
46706;DHT22;33519;50.712;7.124;2023-04-03T10:56:49;15.30;59.20
46706;DHT22;33519;50.712;7.124;2023-04-03T11:02:20;14.90;58.60
46706;DHT22;33519;50.712;7.124;2023-04-03T11:04:50;14.60;59.40
46706;DHT22;33519;50.712;7.124;2023-04-03T11:07:20;14.20;60.50
46706;DHT22;33519;50.712;7.124;2023-04-03T11:09:52;14.50;60.80
46706;DHT22;33519;50.712;7.124;2023-04-03T11:12:41;14.20;61.80
46706;DHT22;33519;50.712;7.124;2023-04-03T11:15:12;13.80;62.70
46706;DHT22;33519;50.712;7.124;2023-04-03T11:17:43;13.10;60.80
46706;DHT22;33519;50.712;7.124;2023-04-03T11:22:50;13.20;61.80
46706;DHT22;33519;50.712;7.124;2023-04-03T11:25:19;13.30;62.00
46706;DHT22;33519;50.712;7.124;2023-04-03T11:36:09;12.20;66.80
46706;DHT22;33519;50.712;7.124;2023-04-03T11:38:56;12.80;65.00
46706;DHT22;33519;50.712;7.124;2023-04-03T11:41:32;12.80;64.30
46706;DHT22;33519;50.712;7.124;2023-04-03T11:44:01;12.00;63.90
46706;DHT22;33519;50.712;7.124;2023-04-03T11:49:50;11.40;65.00
46706;DHT22;33519;50.712;7.124;2023-04-03T11:52:55;12.00;64.10
46706;DHT22;33519;50.712;7.124;2023-04-03T11:54:52;12.90;62.70
46706;DHT22;33519;50.712;7.124;2023-04-03T11:57:31;12.60;65.20
46706;DHT22;33519;50.712;7.124;2023-04-03T12:02:54;13.30;63.70
46706;DHT22;33519;50.712;7.124;2023-04-03T12:05:28;13.80;61.60
46706;DHT22;33519;50.712;7.124;2023-04-03T12:13:37;12.40;61.30
46706;DHT22;33519;50.712;7.124;2023-04-03T12:16:05;12.30;62.10
46706;DHT22;33519;50.712;7.124;2023-04-03T12:21:09;12.60;60.80
46706;DHT22;33519;50.712;7.124;2023-04-03T12:23:57;13.20;65.10
46706;DHT22;33519;50.712;7.124;2023-04-03T12:26:24;13.40;61.80
46706;DHT22;33519;50.712;7.124;2023-04-03T12:31:48;14.50;59.00
46706;DHT22;33519;50.712;7.124;2023-04-03T12:37:20;13.60;59.70
46706;DHT22;33519;50.712;7.124;2023-04-03T12:42:30;13.60;60.00
46706;DHT22;33519;50.712;7.124;2023-04-03T12:47:29;14.20;58.90
46706;DHT22;33519;50.712;7.124;2023-04-03T12:49:59;14.10;56.40
46706;DHT22;33519;50.712;7.124;2023-04-03T12:52:30;14.20;57.30
46706;DHT22;33519;50.712;7.124;2023-04-03T12:54:59;14.00;57.30
46706;DHT22;33519;50.712;7.124;2023-04-03T12:57:26;13.80;56.40
46706;DHT22;33519;50.712;7.124;2023-04-03T12:59:57;13.50;56.40
46706;DHT22;33519;50.712;7.124;2023-04-03T13:02:30;13.70;57.10
46706;DHT22;33519;50.712;7.124;2023-04-03T13:04:58;14.10;57.30
46706;DHT22;33519;50.712;7.124;2023-04-03T13:07:27;14.30;57.20
46706;DHT22;33519;50.712;7.124;2023-04-03T13:09:59;14.20;56.90
46706;DHT22;33519;50.712;7.124;2023-04-03T13:12:26;13.80;56.50
46706;DHT22;33519;50.712;7.124;2023-04-03T13:14:54;14.50;56.60
46706;DHT22;33519;50.712;7.124;2023-04-03T13:17:21;15.20;57.40
46706;DHT22;33519;50.712;7.124;2023-04-03T13:19:48;15.10;57.40
46706;DHT22;33519;50.712;7.124;2023-04-03T13:24:50;15.30;56.40
46706;DHT22;33519;50.712;7.124;2023-04-03T13:27:17;14.80;56.20
46706;DHT22;33519;50.712;7.124;2023-04-03T13:29:48;15.00;57.80
46706;DHT22;33519;50.712;7.124;2023-04-03T13:32:20;13.80;56.60
46706;DHT22;33519;50.712;7.124;2023-04-03T13:34:47;13.70;58.50
46706;DHT22;33519;50.712;7.124;2023-04-03T13:39:55;14.70;59.10
46706;DHT22;33519;50.712;7.124;2023-04-03T13:42:24;13.90;60.10
46706;DHT22;33519;50.712;7.124;2023-04-03T13:45:07;14.60;59.70
46706;DHT22;33519;50.712;7.124;2023-04-03T13:47:39;13.70;60.50
46706;DHT22;33519;50.712;7.124;2023-04-03T13:52:47;14.50;60.40
46706;DHT22;33519;50.712;7.124;2023-04-03T13:55:19;14.50;60.20
46706;DHT22;33519;50.712;7.124;2023-04-03T13:57:59;15.00;58.60
46706;DHT22;33519;50.712;7.124;2023-04-03T14:00:38;15.40;58.50
46706;DHT22;33519;50.712;7.124;2023-04-03T14:03:16;15.00;57.50
46706;DHT22;33519;50.712;7.124;2023-04-03T14:05:45;15.10;59.90
46706;DHT22;33519;50.712;7.124;2023-04-03T14:08:11;15.10;57.60
46706;DHT22;33519;50.712;7.124;2023-04-03T14:10:38;15.00;59.50
46706;DHT22;33519;50.712;7.124;2023-04-03T14:13:05;15.00;60.30
46706;DHT22;33519;50.712;7.124;2023-04-03T14:15:31;15.00;58.70
46706;DHT22;33519;50.712;7.124;2023-04-03T14:17:58;15.60;58.60
46706;DHT22;33519;50.712;7.124;2023-04-03T14:20:28;15.30;57.30
46706;DHT22;33519;50.712;7.124;2023-04-03T14:22:55;14.60;58.80
46706;DHT22;33519;50.712;7.124;2023-04-03T14:25:22;15.10;59.30
46706;DHT22;33519;50.712;7.124;2023-04-03T14:27:51;15.50;58.80
46706;DHT22;33519;50.712;7.124;2023-04-03T14:30:20;15.90;56.90
46706;DHT22;33519;50.712;7.124;2023-04-03T14:32:47;16.10;55.30
46706;DHT22;33519;50.712;7.124;2023-04-03T14:35:14;16.10;55.40
46706;DHT22;33519;50.712;7.124;2023-04-03T14:37:43;17.10;54.20
46706;DHT22;33519;50.712;7.124;2023-04-03T14:40:14;17.30;54.60
46706;DHT22;33519;50.712;7.124;2023-04-03T14:42:41;16.50;52.10
46706;DHT22;33519;50.712;7.124;2023-04-03T14:45:10;17.20;54.90
46706;DHT22;33519;50.712;7.124;2023-04-03T14:47:47;16.80;54.10
46706;DHT22;33519;50.712;7.124;2023-04-03T14:50:16;16.20;54.00
46706;DHT22;33519;50.712;7.124;2023-04-03T14:52:43;16.90;55.30
46706;DHT22;33519;50.712;7.124;2023-04-03T14:55:11;17.60;54.60
46706;DHT22;33519;50.712;7.124;2023-04-03T14:57:38;17.40;53.90
46706;DHT22;33519;50.712;7.124;2023-04-03T15:00:07;17.70;53.60
46706;DHT22;33519;50.712;7.124;2023-04-03T15:02:36;18.40;51.90
46706;DHT22;33519;50.712;7.124;2023-04-03T15:05:05;18.40;52.30
46706;DHT22;33519;50.712;7.124;2023-04-03T15:07:34;18.40;52.30
46706;DHT22;33519;50.712;7.124;2023-04-03T15:10:20;18.90;51.70
46706;DHT22;33519;50.712;7.124;2023-04-03T15:12:47;19.70;50.10
46706;DHT22;33519;50.712;7.124;2023-04-03T15:15:14;20.40;49.60
46706;DHT22;33519;50.712;7.124;2023-04-03T15:17:41;21.10;48.60
46706;DHT22;33519;50.712;7.124;2023-04-03T15:20:15;20.60;47.90
46706;DHT22;33519;50.712;7.124;2023-04-03T15:22:42;20.90;48.80
46706;DHT22;33519;50.712;7.124;2023-04-03T15:25:09;20.90;49.00
46706;DHT22;33519;50.712;7.124;2023-04-03T15:27:36;20.50;49.10
46706;DHT22;33519;50.712;7.124;2023-04-03T15:30:05;20.50;49.20
46706;DHT22;33519;50.712;7.124;2023-04-03T15:32:32;20.50;48.80
46706;DHT22;33519;50.712;7.124;2023-04-03T15:35:00;19.40;49.50
46706;DHT22;33519;50.712;7.124;2023-04-03T15:37:27;18.90;49.60
46706;DHT22;33519;50.712;7.124;2023-04-03T15:39:54;18.80;50.40
46706;DHT22;33519;50.712;7.124;2023-04-03T15:42:20;20.00;49.00
46706;DHT22;33519;50.712;7.124;2023-04-03T15:44:47;20.70;48.70
46706;DHT22;33519;50.712;7.124;2023-04-03T15:47:14;20.70;49.10
46706;DHT22;33519;50.712;7.124;2023-04-03T15:49:41;19.70;48.00
46706;DHT22;33519;50.712;7.124;2023-04-03T15:52:08;19.20;49.70
46706;DHT22;33519;50.712;7.124;2023-04-03T15:54:34;19.10;49.40
46706;DHT22;33519;50.712;7.124;2023-04-03T15:57:01;18.10;50.50
46706;DHT22;33519;50.712;7.124;2023-04-03T15:59:28;18.90;50.90
46706;DHT22;33519;50.712;7.124;2023-04-03T16:01:57;19.40;48.80
46706;DHT22;33519;50.712;7.124;2023-04-03T16:04:24;18.80;49.10
46706;DHT22;33519;50.712;7.124;2023-04-03T16:06:51;18.50;49.50
46706;DHT22;33519;50.712;7.124;2023-04-03T16:09:18;18.40;50.10
46706;DHT22;33519;50.712;7.124;2023-04-03T16:11:45;18.60;50.00
46706;DHT22;33519;50.712;7.124;2023-04-03T16:14:11;18.90;49.70
46706;DHT22;33519;50.712;7.124;2023-04-03T16:16:38;19.10;49.40
46706;DHT22;33519;50.712;7.124;2023-04-03T16:19:05;19.50;48.10
46706;DHT22;33519;50.712;7.124;2023-04-03T16:21:32;20.10;47.90
46706;DHT22;33519;50.712;7.124;2023-04-03T16:23:59;20.10;48.10
46706;DHT22;33519;50.712;7.124;2023-04-03T16:26:26;19.90;48.30
46706;DHT22;33519;50.712;7.124;2023-04-03T16:28:53;18.90;47.80
46706;DHT22;33519;50.712;7.124;2023-04-03T16:31:20;18.60;48.70
46706;DHT22;33519;50.712;7.124;2023-04-03T16:33:48;19.00;48.70
46706;DHT22;33519;50.712;7.124;2023-04-03T16:36:14;19.10;48.30
46706;DHT22;33519;50.712;7.124;2023-04-03T16:38:41;18.30;48.90
46706;DHT22;33519;50.712;7.124;2023-04-03T16:41:08;17.80;49.40
46706;DHT22;33519;50.712;7.124;2023-04-03T16:43:34;17.70;49.40
46706;DHT22;33519;50.712;7.124;2023-04-03T16:46:02;17.90;50.10
46706;DHT22;33519;50.712;7.124;2023-04-03T16:48:29;18.50;49.10
46706;DHT22;33519;50.712;7.124;2023-04-03T16:50:58;18.10;49.00
46706;DHT22;33519;50.712;7.124;2023-04-03T16:53:25;18.50;49.20
46706;DHT22;33519;50.712;7.124;2023-04-03T16:55:52;19.00;48.40
46706;DHT22;33519;50.712;7.124;2023-04-03T16:58:19;18.60;48.90
46706;DHT22;33519;50.712;7.124;2023-04-03T17:00:49;17.90;49.30
46706;DHT22;33519;50.712;7.124;2023-04-03T17:03:16;17.20;50.10
46706;DHT22;33519;50.712;7.124;2023-04-03T17:05:46;17.20;50.70
46706;DHT22;33519;50.712;7.124;2023-04-03T17:08:12;17.40;50.70
46706;DHT22;33519;50.712;7.124;2023-04-03T17:10:40;17.60;50.70
46706;DHT22;33519;50.712;7.124;2023-04-03T17:13:06;16.90;50.60
46706;DHT22;33519;50.712;7.124;2023-04-03T17:15:34;15.70;51.80
46706;DHT22;33519;50.712;7.124;2023-04-03T17:18:01;15.80;52.30
46706;DHT22;33519;50.712;7.124;2023-04-03T17:20:28;15.70;51.90
46706;DHT22;33519;50.712;7.124;2023-04-03T17:22:55;15.70;52.00
46706;DHT22;33519;50.712;7.124;2023-04-03T17:25:21;15.80;51.90
46706;DHT22;33519;50.712;7.124;2023-04-03T17:27:48;15.30;52.00